Time,TemperatureF,DewpointF,PressureIn,WindDirection,WindDirectionDegrees,WindSpeedMPH,WindSpeedGustMPH,Humidity,HourlyPrecipIn,Conditions,Clouds,dailyrainin,SoftwareType,DateUTC
2013-03-02 00:00:00,34.4,29.8,29.71,West,278,1.0,1.0,83,0.00,,,0.00,Wunderground v.1.15,2013-03-02 05:00:00,
2013-03-02 00:05:00,34.2,29.6,29.71,NW,326,1.0,5.0,83,0.00,,,0.00,Wunderground v.1.15,2013-03-02 05:05:00,
2013-03-02 00:15:00,33.9,29.3,29.71,WSW,257,1.0,1.0,83,0.00,,,0.00,Wunderground v.1.15,2013-03-02 05:15:00,
2013-03-02 00:25:00,34.0,28.8,29.71,WNW,298,2.0,4.0,81,0.00,,,0.00,Wunderground v.1.15,2013-03-02 05:25:00,
2013-03-02 00:35:00,34.2,28.7,29.71,NW,320,3.0,4.0,80,0.00,,,0.00,Wunderground v.1.15,2013-03-02 05:35:00,
2013-03-02 00:40:00,34.3,28.5,29.71,WNW,290,3.0,3.0,79,0.00,,,0.00,Wunderground v.1.15,2013-03-02 05:40:00,
2013-03-02 00:50:00,34.4,28.6,29.72,NNW,334,2.0,2.0,79,0.00,,,0.00,Wunderground v.1.15,2013-03-02 05:50:00,
2013-03-02 01:00:00,34.3,28.5,29.71,West,274,1.0,3.0,79,0.00,,,0.00,Wunderground v.1.15,2013-03-02 06:00:00,
2013-03-02 01:10:00,34.2,28.4,29.72,West,262,1.0,2.0,79,0.00,,,0.00,Wunderground v.1.15,2013-03-02 06:10:00,
2013-03-02 01:25:00,34.0,27.2,29.71,WNW,289,3.0,5.0,76,0.00,,,0.00,Wunderground v.1.15,2013-03-02 06:25:00,
2013-03-02 01:30:00,34.0,26.9,29.71,West,276,3.0,6.0,75,0.00,,,0.00,Wunderground v.1.15,2013-03-02 06:30:00,
2013-03-02 01:40:00,33.9,26.8,29.71,West,274,3.0,3.0,75,0.00,,,0.00,Wunderground v.1.15,2013-03-02 06:40:00,
2013-03-02 01:45:00,33.7,26.6,29.71,NW,316,2.0,3.0,75,0.00,,,0.00,Wunderground v.1.15,2013-03-02 06:45:00,
2013-03-02 01:55:00,33.5,26.4,29.71,West,267,1.0,2.0,75,0.00,,,0.00,Wunderground v.1.15,2013-03-02 06:55:00,
2013-03-02 02:05:00,33.2,26.5,29.71,WNW,284,0.0,1.0,76,0.00,,,0.00,Wunderground v.1.15,2013-03-02 07:05:00,
2013-03-02 02:15:00,33.1,27.0,29.71,SW,222,1.0,1.0,78,0.00,,,0.00,Wunderground v.1.15,2013-03-02 07:15:00,
2013-03-02 02:25:00,33.1,27.3,29.71,SSW,198,1.0,1.0,79,0.00,,,0.00,Wunderground v.1.15,2013-03-02 07:25:00,
2013-03-02 02:30:00,33.1,27.6,29.71,WNW,283,0.0,1.0,80,0.00,,,0.00,Wunderground v.1.15,2013-03-02 07:30:00,
2013-03-02 02:35:00,33.0,27.8,29.70,SSE,163,1.0,1.0,81,0.00,,,0.00,Wunderground v.1.15,2013-03-02 07:35:00,
2013-03-02 02:45:00,32.9,28.0,29.70,WNW,288,2.0,4.0,82,0.00,,,0.00,Wunderground v.1.15,2013-03-02 07:45:00,
2013-03-02 02:50:00,32.8,27.9,29.70,WNW,287,2.0,2.0,82,0.00,,,0.00,Wunderground v.1.15,2013-03-02 07:50:00,
2013-03-02 03:00:00,32.7,28.1,29.70,West,267,2.0,2.0,83,0.00,,,0.00,Wunderground v.1.15,2013-03-02 08:00:00,
2013-03-02 03:10:00,32.6,28.0,29.70,WNW,285,2.0,2.0,83,0.00,,,0.00,Wunderground v.1.15,2013-03-02 08:10:00,
2013-03-02 03:15:00,32.4,27.8,29.70,West,277,1.0,2.0,83,0.00,,,0.00,Wunderground v.1.15,2013-03-02 08:15:00,
2013-03-02 03:20:00,32.4,28.1,29.70,West,280,1.0,1.0,84,0.00,,,0.00,Wunderground v.1.15,2013-03-02 08:20:00,
2013-03-02 03:30:00,32.4,28.1,29.70,West,280,1.0,1.0,84,0.00,,,0.00,Wunderground v.1.15,2013-03-02 08:30:00,
2013-03-02 03:35:00,32.5,28.2,29.70,NNW,342,1.0,2.0,84,0.00,,,0.00,Wunderground v.1.15,2013-03-02 08:35:00,
2013-03-02 03:45:00,32.6,28.0,29.70,WNW,282,1.0,3.0,83,0.00,,,0.00,Wunderground v.1.15,2013-03-02 08:45:00,
2013-03-02 03:55:00,32.7,28.1,29.70,WNW,287,2.0,4.0,83,0.00,,,0.00,Wunderground v.1.15,2013-03-02 08:55:00,
2013-03-02 04:05:00,32.8,27.9,29.70,WNW,285,2.0,2.0,82,0.00,,,0.00,Wunderground v.1.15,2013-03-02 09:05:00,
2013-03-02 04:15:00,32.8,27.9,29.70,West,272,1.0,2.0,82,0.00,,,0.00,Wunderground v.1.15,2013-03-02 09:15:00,
2013-03-02 04:25:00,32.8,27.9,29.71,NW,320,1.0,2.0,82,0.00,,,0.00,Wunderground v.1.15,2013-03-02 09:25:00,
2013-03-02 04:35:00,32.9,27.7,29.71,WNW,300,2.0,3.0,81,0.00,,,0.00,Wunderground v.1.15,2013-03-02 09:35:00,
2013-03-02 04:40:00,32.9,28.0,29.71,WNW,296,2.0,2.0,82,0.00,,,0.00,Wunderground v.1.15,2013-03-02 09:40:00,
2013-03-02 04:50:00,32.9,28.0,29.71,West,276,1.0,1.0,82,0.00,,,0.00,Wunderground v.1.15,2013-03-02 09:50:00,
2013-03-02 05:00:00,32.9,27.7,29.71,WNW,283,1.0,1.0,81,0.00,,,0.00,Wunderground v.1.15,2013-03-02 10:00:00,
2013-03-02 05:15:00,32.5,27.6,29.71,West,267,1.0,2.0,82,0.00,,,0.00,Wunderground v.1.15,2013-03-02 10:15:00,
2013-03-02 05:25:00,32.1,27.2,29.71,West,271,0.0,2.0,82,0.00,,,0.00,Wunderground v.1.15,2013-03-02 10:25:00,
2013-03-02 05:35:00,31.7,26.8,29.71,West,269,0.0,0.0,82,0.00,,,0.00,Wunderground v.1.15,2013-03-02 10:35:00,
2013-03-02 05:45:00,31.4,26.8,29.71,NNE,12,0.0,0.0,83,0.00,,,0.00,Wunderground v.1.15,2013-03-02 10:45:00,
2013-03-02 05:55:00,31.3,26.7,29.71,West,271,0.0,1.0,83,0.00,,,0.00,Wunderground v.1.15,2013-03-02 10:55:00,
2013-03-02 06:05:00,31.2,26.9,29.71,West,278,0.0,0.0,84,0.00,,,0.00,Wunderground v.1.15,2013-03-02 11:05:00,
2013-03-02 06:15:00,31.3,26.7,29.71,SSE,161,0.0,0.0,83,0.00,,,0.00,Wunderground v.1.15,2013-03-02 11:15:00,
2013-03-02 06:25:00,31.4,26.8,29.71,WNW,287,0.0,1.0,83,0.00,,,0.00,Wunderground v.1.15,2013-03-02 11:25:00,
2013-03-02 06:35:00,31.3,26.7,29.72,West,264,0.0,2.0,83,0.00,,,0.00,Wunderground v.1.15,2013-03-02 11:35:00,
2013-03-02 06:45:00,31.5,26.6,29.72,West,269,1.0,1.0,82,0.00,,,0.00,Wunderground v.1.15,2013-03-02 11:45:00,
2013-03-02 06:55:00,31.6,26.7,29.72,West,264,0.0,1.0,82,0.00,,,0.00,Wunderground v.1.15,2013-03-02 11:55:00,
2013-03-02 07:05:00,31.8,26.6,29.72,West,278,1.0,1.0,81,0.00,,,0.00,Wunderground v.1.15,2013-03-02 12:05:00,
2013-03-02 07:15:00,32.1,26.9,29.72,WNW,294,1.0,2.0,81,0.00,,,0.00,Wunderground v.1.15,2013-03-02 12:15:00,
2013-03-02 07:25:00,32.8,27.0,29.72,West,280,1.0,1.0,79,0.00,,,0.00,Wunderground v.1.15,2013-03-02 12:25:00,
2013-03-02 07:35:00,33.0,26.9,29.72,WNW,297,1.0,1.0,78,0.00,,,0.00,Wunderground v.1.15,2013-03-02 12:35:00,
2013-03-02 07:40:00,33.1,27.0,29.72,NW,310,1.0,3.0,78,0.00,,,0.00,Wunderground v.1.15,2013-03-02 12:40:00,
2013-03-02 07:50:00,33.4,27.0,29.72,WNW,288,2.0,2.0,77,0.00,,,0.00,Wunderground v.1.15,2013-03-02 12:50:00,
2013-03-02 08:00:00,33.5,26.7,29.72,NW,309,2.0,2.0,76,0.00,,,0.00,Wunderground v.1.15,2013-03-02 13:00:00,
2013-03-02 08:10:00,33.9,27.1,29.72,NW,304,2.0,2.0,76,0.00,,,0.00,Wunderground v.1.15,2013-03-02 13:10:00,
2013-03-02 08:20:00,34.0,26.9,29.72,North,353,2.0,2.0,75,0.00,,,0.00,Wunderground v.1.15,2013-03-02 13:20:00,
2013-03-02 08:25:00,33.9,26.8,29.72,NNW,340,3.0,3.0,75,0.00,,,0.00,Wunderground v.1.15,2013-03-02 13:25:00,
2013-03-02 08:35:00,34.0,26.9,29.71,WNW,300,2.0,3.0,75,0.00,,,0.00,Wunderground v.1.15,2013-03-02 13:35:00,
2013-03-02 08:45:00,34.2,27.1,29.71,WNW,298,2.0,2.0,75,0.00,,,0.00,Wunderground v.1.15,2013-03-02 13:45:00,
2013-03-02 08:55:00,34.3,26.9,29.71,NNE,23,2.0,2.0,74,0.00,,,0.00,Wunderground v.1.15,2013-03-02 13:55:00,
2013-03-02 09:05:00,34.4,27.0,29.71,SW,221,3.0,3.0,74,0.00,,,0.00,Wunderground v.1.15,2013-03-02 14:05:00,
2013-03-02 09:15:00,34.6,27.2,29.71,NNW,337,2.0,2.0,74,0.00,,,0.00,Wunderground v.1.15,2013-03-02 14:15:00,
2013-03-02 09:25:00,34.6,26.8,29.71,WNW,303,3.0,4.0,73,0.00,,,0.00,Wunderground v.1.15,2013-03-02 14:25:00,
2013-03-02 09:30:00,34.6,26.8,29.70,NW,316,4.0,4.0,73,0.00,,,0.00,Wunderground v.1.15,2013-03-02 14:30:00,
2013-03-02 09:40:00,34.9,27.1,29.70,SSW,197,2.0,3.0,73,0.00,,,0.00,Wunderground v.1.15,2013-03-02 14:40:00,
2013-03-02 09:50:00,34.9,27.1,29.70,NW,309,3.0,3.0,73,0.00,,,0.00,Wunderground v.1.15,2013-03-02 14:50:00,
2013-03-02 10:00:00,35.3,27.2,29.70,West,260,3.0,3.0,72,0.00,,,0.00,Wunderground v.1.15,2013-03-02 15:00:00,
2013-03-02 10:10:00,35.1,27.3,29.70,WSW,246,3.0,3.0,73,0.00,,,0.00,Wunderground v.1.15,2013-03-02 15:10:00,
2013-03-02 10:20:00,35.2,27.4,29.70,NW,309,3.0,3.0,73,0.00,,,0.00,Wunderground v.1.15,2013-03-02 15:20:00,
2013-03-02 10:30:00,35.5,27.4,29.70,WNW,291,2.0,2.0,72,0.00,,,0.00,Wunderground v.1.15,2013-03-02 15:30:00,
2013-03-02 10:40:00,35.6,27.1,29.70,WNW,293,3.0,4.0,71,0.00,,,0.00,Wunderground v.1.15,2013-03-02 15:40:00,
2013-03-02 10:50:00,35.7,27.6,29.70,WNW,296,3.0,3.0,72,0.00,,,0.00,Wunderground v.1.15,2013-03-02 15:50:00,
2013-03-02 10:55:00,35.7,27.2,29.69,NNW,345,3.0,3.0,71,0.00,,,0.00,Wunderground v.1.15,2013-03-02 15:55:00,
2013-03-02 11:00:00,35.8,27.3,29.69,NW,318,2.0,2.0,71,0.00,,,0.00,Wunderground v.1.15,2013-03-02 16:00:00,
2013-03-02 11:10:00,36.1,27.3,29.69,NW,321,2.0,3.0,70,0.00,,,0.00,Wunderground v.1.15,2013-03-02 16:10:00,
2013-03-02 11:15:00,36.1,27.3,29.69,NNW,340,2.0,3.0,70,0.00,,,0.00,Wunderground v.1.15,2013-03-02 16:15:00,
2013-03-02 11:25:00,36.4,27.2,29.69,NW,305,2.0,2.0,69,0.00,,,0.00,Wunderground v.1.15,2013-03-02 16:25:00,
2013-03-02 11:35:00,36.6,27.4,29.69,NE,47,1.0,2.0,69,0.00,,,0.00,Wunderground v.1.15,2013-03-02 16:35:00,
2013-03-02 11:45:00,36.7,27.5,29.68,North,349,2.0,2.0,69,0.00,,,0.00,Wunderground v.1.15,2013-03-02 16:45:00,
2013-03-02 11:55:00,36.8,27.6,29.68,WNW,291,2.0,4.0,69,0.00,,,0.00,Wunderground v.1.15,2013-03-02 16:55:00,
2013-03-02 12:05:00,36.6,27.0,29.68,NW,304,3.0,6.0,68,0.00,,,0.00,Wunderground v.1.15,2013-03-02 17:05:00,
2013-03-02 12:15:00,36.8,27.6,29.68,NW,312,2.0,5.0,69,0.00,,,0.00,Wunderground v.1.15,2013-03-02 17:15:00,
2013-03-02 12:20:00,36.9,27.7,29.67,West,278,2.0,3.0,69,0.00,,,0.00,Wunderground v.1.15,2013-03-02 17:20:00,
2013-03-02 12:25:00,37.0,27.4,29.67,NW,307,2.0,3.0,68,0.00,,,0.00,Wunderground v.1.15,2013-03-02 17:25:00,
2013-03-02 12:35:00,37.1,27.5,29.67,NW,307,2.0,3.0,68,0.00,,,0.00,Wunderground v.1.15,2013-03-02 17:35:00,
2013-03-02 12:40:00,37.2,27.6,29.67,NW,305,2.0,2.0,68,0.00,,,0.00,Wunderground v.1.15,2013-03-02 17:40:00,
2013-03-02 12:50:00,37.3,27.3,29.67,North,1,3.0,4.0,67,0.00,,,0.00,Wunderground v.1.15,2013-03-02 17:50:00,
2013-03-02 13:00:00,37.5,27.5,29.67,West,264,2.0,2.0,67,0.00,,,0.00,Wunderground v.1.15,2013-03-02 18:00:00,
2013-03-02 13:05:00,37.7,27.7,29.67,North,7,1.0,2.0,67,0.00,,,0.00,Wunderground v.1.15,2013-03-02 18:05:00,
2013-03-02 13:10:00,37.7,27.7,29.67,NW,324,1.0,1.0,67,0.00,,,0.00,Wunderground v.1.15,2013-03-02 18:10:00,
2013-03-02 13:20:00,37.7,27.4,29.67,NW,307,1.0,1.0,66,0.00,,,0.00,Wunderground v.1.15,2013-03-02 18:20:00,
2013-03-02 13:25:00,37.7,27.7,29.67,NW,326,2.0,2.0,67,0.00,,,0.00,Wunderground v.1.15,2013-03-02 18:25:00,
2013-03-02 13:35:00,38.0,27.6,29.67,NW,309,1.0,1.0,66,0.00,,,0.00,Wunderground v.1.15,2013-03-02 18:35:00,
2013-03-02 13:40:00,38.1,28.1,29.67,NW,308,1.0,2.0,67,0.00,,,0.00,Wunderground v.1.15,2013-03-02 18:40:00,
2013-03-02 13:50:00,38.0,27.6,29.66,WNW,291,2.0,2.0,66,0.00,,,0.00,Wunderground v.1.15,2013-03-02 18:50:00,
2013-03-02 14:00:00,37.7,27.7,29.67,SW,227,2.0,2.0,67,0.00,,,0.00,Wunderground v.1.15,2013-03-02 19:00:00,
2013-03-02 14:10:00,37.9,27.5,29.66,NW,321,1.0,1.0,66,0.00,,,0.00,Wunderground v.1.15,2013-03-02 19:10:00,
2013-03-02 14:20:00,38.1,27.7,29.66,WNW,294,1.0,1.0,66,0.00,,,0.00,Wunderground v.1.15,2013-03-02 19:20:00,
2013-03-02 14:30:00,38.1,27.4,29.66,SSW,212,1.0,1.0,65,0.00,,,0.00,Wunderground v.1.15,2013-03-02 19:30:00,
2013-03-02 14:35:00,38.1,27.4,29.66,WNW,298,1.0,1.0,65,0.00,,,0.00,Wunderground v.1.15,2013-03-02 19:35:00,
2013-03-02 14:45:00,38.2,27.8,29.65,NW,309,1.0,3.0,66,0.00,,,0.00,Wunderground v.1.15,2013-03-02 19:45:00,
2013-03-02 14:55:00,38.2,27.5,29.65,WNW,297,1.0,4.0,65,0.00,,,0.00,Wunderground v.1.15,2013-03-02 19:55:00,
2013-03-02 15:10:00,38.1,27.4,29.65,West,276,2.0,2.0,65,0.00,,,0.00,Wunderground v.1.15,2013-03-02 20:10:00,
2013-03-02 15:20:00,37.9,27.5,29.65,NW,305,2.0,4.0,66,0.00,,,0.00,Wunderground v.1.15,2013-03-02 20:20:00,
2013-03-02 15:30:00,37.8,27.5,29.65,SW,228,2.0,3.0,66,0.00,,,0.00,Wunderground v.1.15,2013-03-02 20:30:00,
2013-03-02 15:40:00,37.7,27.4,29.65,North,349,2.0,2.0,66,0.00,,,0.00,Wunderground v.1.15,2013-03-02 20:40:00,
2013-03-02 15:50:00,37.7,27.4,29.65,NNW,331,2.0,2.0,66,0.00,,,0.00,Wunderground v.1.15,2013-03-02 20:50:00,
2013-03-02 16:00:00,37.6,27.6,29.65,WNW,294,2.0,2.0,67,0.00,,,0.00,Wunderground v.1.15,2013-03-02 21:00:00,
2013-03-02 16:10:00,37.6,27.6,29.65,NW,320,1.0,2.0,67,0.00,,,0.00,Wunderground v.1.15,2013-03-02 21:10:00,
2013-03-02 16:20:00,37.5,27.5,29.65,WNW,289,1.0,3.0,67,0.00,,,0.00,Wunderground v.1.15,2013-03-02 21:20:00,
2013-03-02 16:30:00,37.5,27.5,29.65,NW,312,1.0,1.0,67,0.00,,,0.00,Wunderground v.1.15,2013-03-02 21:30:00,
2013-03-02 16:35:00,37.4,27.4,29.65,South,176,0.0,2.0,67,0.00,,,0.00,Wunderground v.1.15,2013-03-02 21:35:00,
2013-03-02 16:45:00,37.3,27.7,29.65,NW,305,2.0,2.0,68,0.00,,,0.00,Wunderground v.1.15,2013-03-02 21:45:00,
2013-03-02 16:55:00,37.1,27.2,29.65,WNW,300,2.0,2.0,67,0.00,,,0.00,Wunderground v.1.15,2013-03-02 21:55:00,
2013-03-02 17:05:00,36.9,27.3,29.66,NW,305,3.0,5.0,68,0.00,,,0.00,Wunderground v.1.15,2013-03-02 22:05:00,
2013-03-02 17:15:00,36.8,27.6,29.66,NW,309,1.0,3.0,69,0.00,,,0.00,Wunderground v.1.15,2013-03-02 22:15:00,
2013-03-02 17:25:00,36.7,27.5,29.66,WNW,288,1.0,2.0,69,0.00,,,0.00,Wunderground v.1.15,2013-03-02 22:25:00,
2013-03-02 17:30:00,36.6,27.4,29.66,WNW,295,1.0,1.0,69,0.00,,,0.00,Wunderground v.1.15,2013-03-02 22:30:00,
2013-03-02 17:40:00,36.5,27.3,29.67,WNW,290,1.0,1.0,69,0.00,,,0.00,Wunderground v.1.15,2013-03-02 22:40:00,
2013-03-02 17:50:00,36.3,27.4,29.67,WNW,294,1.0,1.0,70,0.00,,,0.00,Wunderground v.1.15,2013-03-02 22:50:00,
2013-03-02 18:00:00,36.2,27.7,29.67,West,278,1.0,1.0,71,0.00,,,0.00,Wunderground v.1.15,2013-03-02 23:00:00,
2013-03-02 18:10:00,36.0,27.5,29.67,WNW,289,1.0,5.0,71,0.00,,,0.00,Wunderground v.1.15,2013-03-02 23:10:00,
2013-03-02 18:15:00,36.0,27.2,29.67,WNW,300,1.0,5.0,70,0.00,,,0.00,Wunderground v.1.15,2013-03-02 23:15:00,
2013-03-02 18:25:00,35.9,27.1,29.67,NW,305,1.0,1.0,70,0.00,,,0.00,Wunderground v.1.15,2013-03-02 23:25:00,
2013-03-02 18:35:00,35.9,27.4,29.68,WNW,293,1.0,2.0,71,0.00,,,0.00,Wunderground v.1.15,2013-03-02 23:35:00,
2013-03-02 18:45:00,35.7,27.2,29.68,WNW,302,0.0,2.0,71,0.00,,,0.00,Wunderground v.1.15,2013-03-02 23:45:00,
2013-03-02 18:55:00,35.7,27.2,29.68,WSW,253,1.0,1.0,71,0.00,,,0.00,Wunderground v.1.15,2013-03-02 23:55:00,
2013-03-02 19:05:00,35.6,27.1,29.68,West,276,1.0,1.0,71,0.00,,,0.00,Wunderground v.1.15,2013-03-03 00:05:00,
2013-03-02 19:15:00,35.5,27.7,29.68,NW,306,0.0,1.0,73,0.00,,,0.00,Wunderground v.1.15,2013-03-03 00:15:00,
2013-03-02 19:25:00,35.4,27.6,29.68,WNW,295,1.0,2.0,73,0.00,,,0.00,Wunderground v.1.15,2013-03-03 00:25:00,
2013-03-02 19:35:00,35.3,27.5,29.68,WNW,291,0.0,1.0,73,0.00,,,0.00,Wunderground v.1.15,2013-03-03 00:35:00,
2013-03-02 19:45:00,35.3,27.5,29.68,WNW,300,1.0,1.0,73,0.00,,,0.00,Wunderground v.1.15,2013-03-03 00:45:00,
2013-03-02 19:55:00,35.3,27.5,29.68,WNW,288,1.0,2.0,73,0.00,,,0.00,Wunderground v.1.15,2013-03-03 00:55:00,
2013-03-02 20:05:00,35.2,27.4,29.68,WNW,298,1.0,2.0,73,0.00,,,0.00,Wunderground v.1.15,2013-03-03 01:05:00,
2013-03-02 20:15:00,35.2,27.4,29.68,NNW,330,2.0,2.0,73,0.00,,,0.00,Wunderground v.1.15,2013-03-03 01:15:00,
2013-03-02 20:20:00,35.2,27.7,29.68,WNW,298,2.0,2.0,74,0.00,,,0.00,Wunderground v.1.15,2013-03-03 01:20:00,
2013-03-02 20:30:00,35.1,27.3,29.68,NW,316,2.0,2.0,73,0.00,,,0.00,Wunderground v.1.15,2013-03-03 01:30:00,
2013-03-02 20:40:00,35.1,27.3,29.68,NW,313,3.0,3.0,73,0.00,,,0.00,Wunderground v.1.15,2013-03-03 01:40:00,
2013-03-02 20:50:00,34.9,27.5,29.68,North,353,3.0,3.0,74,0.00,,,0.00,Wunderground v.1.15,2013-03-03 01:50:00,
2013-03-02 21:00:00,34.9,27.5,29.68,WNW,302,3.0,3.0,74,0.00,,,0.00,Wunderground v.1.15,2013-03-03 02:00:00,
2013-03-02 21:10:00,34.7,27.3,29.68,NW,309,3.0,4.0,74,0.00,,,0.00,Wunderground v.1.15,2013-03-03 02:10:00,
2013-03-02 21:15:00,34.7,27.3,29.68,NW,311,3.0,4.0,74,0.00,,,0.00,Wunderground v.1.15,2013-03-03 02:15:00,
2013-03-02 21:25:00,34.5,27.1,29.68,NW,313,3.0,4.0,74,0.00,,,0.00,Wunderground v.1.15,2013-03-03 02:25:00,
2013-03-02 21:35:00,34.5,27.4,29.68,NW,308,3.0,3.0,75,0.00,,,0.00,Wunderground v.1.15,2013-03-03 02:35:00,
2013-03-02 21:45:00,34.4,27.3,29.68,WNW,301,3.0,5.0,75,0.00,,,0.00,Wunderground v.1.15,2013-03-03 02:45:00,
2013-03-02 21:55:00,34.2,27.1,29.68,NW,314,3.0,3.0,75,0.00,,,0.00,Wunderground v.1.15,2013-03-03 02:55:00,
2013-03-02 22:00:00,34.2,27.4,29.67,NW,308,2.0,4.0,76,0.00,,,0.00,Wunderground v.1.15,2013-03-03 03:00:00,
2013-03-02 22:10:00,34.0,27.2,29.67,WNW,302,3.0,4.0,76,0.00,,,0.00,Wunderground v.1.15,2013-03-03 03:10:00,
2013-03-02 22:20:00,33.7,27.3,29.67,West,278,3.0,3.0,77,0.00,,,0.00,Wunderground v.1.15,2013-03-03 03:20:00,
2013-03-02 22:30:00,33.4,27.3,29.67,NW,309,3.0,4.0,78,0.00,,,0.00,Wunderground v.1.15,2013-03-03 03:30:00,
2013-03-02 22:35:00,33.3,27.2,29.67,NW,309,3.0,4.0,78,0.00,,,0.00,Wunderground v.1.15,2013-03-03 03:35:00,
2013-03-02 22:45:00,33.1,27.3,29.67,WNW,300,2.0,3.0,79,0.00,,,0.00,Wunderground v.1.15,2013-03-03 03:45:00,
2013-03-02 22:50:00,33.1,27.3,29.67,NW,315,2.0,3.0,79,0.00,,,0.00,Wunderground v.1.15,2013-03-03 03:50:00,
2013-03-02 23:00:00,33.0,27.5,29.67,NW,307,2.0,2.0,80,0.00,,,0.00,Wunderground v.1.15,2013-03-03 04:00:00,
2013-03-02 23:05:00,32.9,27.4,29.67,NW,306,2.0,2.0,80,0.00,,,0.00,Wunderground v.1.15,2013-03-03 04:05:00,
2013-03-02 23:15:00,32.7,27.2,29.67,West,278,2.0,2.0,80,0.00,,,0.00,Wunderground v.1.15,2013-03-03 04:15:00,
2013-03-02 23:25:00,32.6,27.4,29.66,WNW,285,3.0,3.0,81,0.00,,,0.00,Wunderground v.1.15,2013-03-03 04:25:00,
2013-03-02 23:35:00,32.4,27.2,29.66,North,6,2.0,4.0,81,0.00,,,0.00,Wunderground v.1.15,2013-03-03 04:35:00,
2013-03-02 23:45:00,32.3,27.1,29.66,NNE,18,3.0,4.0,81,0.00,,,0.00,Wunderground v.1.15,2013-03-03 04:45:00,
2013-03-02 23:55:00,32.1,26.9,29.66,NW,311,3.0,3.0,81,0.00,,,0.00,Wunderground v.1.15,2013-03-03 04:55:00,